Time;durP1;ratioP1;P1;durP2;ratioP2;P2;SDS_P1;SDS_P2;PMS_P1;PMS_P2;Temp;Humidity;BMP_temperature;BMP_pressure;BME280_temperature;BME280_humidity;BME280_pressure;Samples;Min_cycle;Max_cycle;Signal;HPM_P1;HPM_P2
2022/10/26 00:00:44;;;;;;;5.68;2.20;;;17.00;75.50;;;;;;5014718;28;20782;-71
2022/10/26 00:03:10;;;;;;;11.27;2.80;;;16.90;76.10;;;;;;5009524;28;20188;-70
2022/10/26 00:05:36;;;;;;;2.10;1.90;;;17.00;74.90;;;;;;5010783;28;20703;-71
2022/10/26 00:08:02;;;;;;;3.70;1.70;;;16.90;75.10;;;;;;5010987;28;20717;-70
2022/10/26 00:10:28;;;;;;;1.80;1.70;;;17.00;74.60;;;;;;5012502;28;20295;-70
2022/10/26 00:12:53;;;;;;;3.25;2.13;;;16.90;75.50;;;;;;5009628;28;20275;-70
2022/10/26 00:15:19;;;;;;;1.77;1.67;;;16.90;75.40;;;;;;5013569;28;20188;-70
2022/10/26 00:17:46;;;;;;;7.60;2.08;;;16.90;74.90;;;;;;5011813;28;20181;-70
2022/10/26 00:20:12;;;;;;;4.15;1.70;;;16.90;75.00;;;;;;5007561;28;20188;-70
2022/10/26 00:22:38;;;;;;;2.83;1.75;;;16.70;75.70;;;;;;5009214;28;21223;-71
2022/10/26 00:25:05;;;;;;;3.00;1.92;;;16.70;75.40;;;;;;5013253;28;20192;-70
2022/10/26 00:27:33;;;;;;;3.55;1.88;;;16.80;75.30;;;;;;5012265;28;20216;-70
2022/10/26 00:29:59;;;;;;;1.95;1.55;;;16.70;76.10;;;;;;5009219;28;20199;-72
2022/10/26 00:32:25;;;;;;;5.30;1.88;;;16.70;75.30;;;;;;5008282;28;20224;-70
2022/10/26 00:34:50;;;;;;;6.50;2.20;;;16.60;76.60;;;;;;5010726;28;20190;-70
2022/10/26 00:37:16;;;;;;;3.83;2.33;;;16.50;76.70;;;;;;5006667;28;20195;-70
2022/10/26 00:39:42;;;;;;;1.60;1.42;;;16.60;75.70;;;;;;5014644;28;20203;-70
2022/10/26 00:42:12;;;;;;;2.40;1.88;;;16.50;76.20;;;;;;5007407;28;20188;-72
2022/10/26 00:44:46;;;;;;;2.08;1.83;;;16.40;77.00;;;;;;5008253;28;20218;-71
2022/10/26 00:47:50;;;;;;;3.60;2.10;;;16.40;76.70;;;;;;5008204;28;20193;-71
2022/10/26 00:50:37;;;;;;;5.47;1.83;;;16.40;76.80;;;;;;4988409;28;20247;-72
2022/10/26 00:53:05;;;;;;;4.97;2.60;;;16.20;77.40;;;;;;4985629;28;20201;-71
2022/10/26 00:55:37;;;;;;;3.30;2.33;;;16.30;76.50;;;;;;4974015;28;20344;-71
2022/10/26 00:58:05;;;;;;;3.75;1.70;;;16.20;77.50;;;;;;4987320;28;20217;-70
2022/10/26 01:00:31;;;;;;;2.28;2.08;;;16.20;77.50;;;;;;4985179;28;20202;-71
2022/10/26 01:03:00;;;;;;;2.33;1.75;;;16.10;77.20;;;;;;4982046;28;20194;-71
2022/10/26 01:05:26;;;;;;;3.30;1.80;;;16.10;77.30;;;;;;4995711;28;20193;-71
2022/10/26 01:07:53;;;;;;;3.65;1.98;;;16.00;77.60;;;;;;4993627;28;20188;-71
2022/10/26 01:10:20;;;;;;;4.65;1.88;;;16.00;77.80;;;;;;4987746;28;20208;-72
2022/10/26 01:12:46;;;;;;;3.80;2.00;;;16.00;78.00;;;;;;4991617;28;20205;-71
2022/10/26 01:15:12;;;;;;;3.50;2.10;;;16.00;77.90;;;;;;4992400;28;20194;-71
2022/10/26 01:17:44;;;;;;;6.15;2.17;;;16.10;77.70;;;;;;4984601;28;20193;-72
2022/10/26 01:20:39;;;;;;;6.03;1.90;;;16.10;77.20;;;;;;4995138;28;20200;-72
2022/10/26 01:23:17;;;;;;;2.70;1.88;;;16.10;76.90;;;;;;4989901;28;20287;-71
2022/10/26 01:25:59;;;;;;;6.30;2.30;;;16.10;77.00;;;;;;5005079;28;20188;-71
2022/10/26 01:28:52;;;;;;;2.13;1.90;;;16.10;76.50;;;;;;5015104;28;20605;-71
2022/10/26 01:31:29;;;;;;;2.30;2.08;;;16.10;76.40;;;;;;5018072;28;20240;-71
2022/10/26 01:34:05;;;;;;;2.40;2.05;;;16.10;76.70;;;;;;5016415;28;20188;-71
2022/10/26 01:36:44;;;;;;;3.83;2.03;;;16.10;76.60;;;;;;5007848;28;20189;-71
2022/10/26 01:39:34;;;;;;;4.65;2.55;;;16.10;77.10;;;;;;5011596;28;20176;-71
2022/10/26 01:42:02;;;;;;;4.38;2.63;;;16.10;77.00;;;;;;5013150;28;20208;-71
2022/10/26 01:44:30;;;;;;;2.40;2.20;;;16.10;76.90;;;;;;5016064;28;20189;-71
2022/10/26 01:46:58;;;;;;;2.20;2.10;;;16.00;76.90;;;;;;5010642;28;20197;-71
2022/10/26 01:49:31;;;;;;;5.38;2.17;;;16.00;77.10;;;;;;5017333;28;20238;-71
2022/10/26 01:51:57;;;;;;;2.22;2.13;;;16.00;76.70;;;;;;5012847;28;20212;-71
2022/10/26 01:54:23;;;;;;;2.90;2.25;;;15.90;77.00;;;;;;5013536;28;20677;-71
2022/10/26 01:56:53;;;;;;;1.63;1.63;;;15.90;77.20;;;;;;5014547;28;20715;-71
2022/10/26 01:59:46;;;;;;;4.75;2.10;;;15.90;77.10;;;;;;5012514;28;20860;-70
2022/10/26 02:02:27;;;;;;;2.42;1.45;;;15.90;76.70;;;;;;5014308;28;20196;-70
2022/10/26 02:05:14;;;;;;;3.90;2.03;;;15.90;76.10;;;;;;5012192;28;20180;-70
2022/10/26 02:08:03;;;;;;;2.35;1.65;;;15.80;76.30;;;;;;5009503;28;20223;-71
2022/10/26 02:10:53;;;;;;;4.13;1.75;;;15.80;76.40;;;;;;5014539;28;20216;-70
2022/10/26 02:13:30;;;;;;;3.20;1.67;;;15.80;77.00;;;;;;5012221;28;20602;-70
2022/10/26 02:15:59;;;;;;;1.92;1.83;;;15.80;77.10;;;;;;5011636;28;21606;-71
2022/10/26 02:18:46;;;;;;;7.65;1.85;;;15.80;77.30;;;;;;5009826;28;20184;-70
2022/10/26 02:21:19;;;;;;;5.78;2.08;;;15.70;77.50;;;;;;5010101;28;20188;-71
2022/10/26 02:23:47;;;;;;;3.85;1.30;;;15.70;77.70;;;;;;5017029;28;20611;-69
2022/10/26 02:26:18;;;;;;;4.03;1.67;;;15.60;77.80;;;;;;5016407;28;20275;-70
2022/10/26 02:28:47;;;;;;;7.55;1.60;;;15.70;77.30;;;;;;5016904;28;20180;-70
2022/10/26 02:31:14;;;;;;;1.45;1.35;;;15.60;77.00;;;;;;5007984;28;20217;-71
2022/10/26 02:33:46;;;;;;;2.65;2.00;;;15.60;77.10;;;;;;5012568;28;20173;-70
2022/10/26 02:36:16;;;;;;;1.40;1.27;;;15.60;76.60;;;;;;5009475;28;20276;-71
2022/10/26 02:38:44;;;;;;;1.75;1.42;;;15.60;76.80;;;;;;5009942;28;20188;-71
2022/10/26 02:41:13;;;;;;;2.90;1.80;;;15.60;77.60;;;;;;5011477;28;20192;-71
2022/10/26 02:43:46;;;;;;;1.65;1.55;;;15.50;77.40;;;;;;5009957;28;20696;-72
2022/10/26 02:46:15;;;;;;;2.72;1.98;;;15.50;76.70;;;;;;5006299;28;20222;-71
2022/10/26 02:48:41;;;;;;;4.32;1.77;;;15.50;77.30;;;;;;5014548;28;20183;-71
2022/10/26 02:51:30;;;;;;;3.55;2.15;;;15.50;77.60;;;;;;5008649;28;20213;-71
2022/10/26 02:53:58;;;;;;;2.65;1.45;;;15.50;77.20;;;;;;5012598;28;20187;-71
2022/10/26 02:56:50;;;;;;;1.33;1.33;;;15.50;76.60;;;;;;5009108;28;20239;-71
2022/10/26 02:59:18;;;;;;;1.40;1.40;;;15.40;76.90;;;;;;5016172;28;20603;-71
2022/10/26 03:01:44;;;;;;;1.90;1.70;;;15.40;76.60;;;;;;5009607;28;20181;-71
2022/10/26 03:04:09;;;;;;;5.18;1.98;;;15.30;76.20;;;;;;5008096;28;20185;-71
2022/10/26 03:06:35;;;;;;;1.60;1.33;;;15.30;76.90;;;;;;5012741;28;20676;-71
2022/10/26 03:09:01;;;;;;;2.10;1.92;;;15.30;78.00;;;;;;5014146;28;20945;-71
2022/10/26 03:11:26;;;;;;;3.25;2.08;;;15.30;77.70;;;;;;5005351;28;20226;-71
2022/10/26 03:13:52;;;;;;;4.22;1.67;;;15.30;77.60;;;;;;5008479;28;20178;-72
2022/10/26 03:16:17;;;;;;;2.50;2.30;;;15.20;78.50;;;;;;5009940;28;20192;-70
2022/10/26 03:18:43;;;;;;;1.85;1.75;;;15.20;79.50;;;;;;5009313;28;20251;-70
2022/10/26 03:21:09;;;;;;;4.80;2.42;;;15.20;79.60;;;;;;5009986;28;20247;-71
2022/10/26 03:23:34;;;;;;;6.53;2.60;;;15.20;79.70;;;;;;5005090;28;20188;-70
2022/10/26 03:26:00;;;;;;;2.33;2.13;;;15.10;80.10;;;;;;5008689;28;20221;-70
2022/10/26 03:28:26;;;;;;;4.22;2.20;;;15.10;80.50;;;;;;5008185;28;20217;-71
2022/10/26 03:30:51;;;;;;;10.27;2.40;;;15.10;80.80;;;;;;5015501;28;20222;-70
2022/10/26 03:33:17;;;;;;;3.00;1.80;;;15.10;80.10;;;;;;5008816;28;20185;-70
2022/10/26 03:35:43;;;;;;;2.90;2.60;;;15.00;81.00;;;;;;5012436;28;20242;-72
2022/10/26 03:38:09;;;;;;;6.18;2.65;;;15.00;80.80;;;;;;5005261;28;20185;-72
2022/10/26 03:40:35;;;;;;;7.93;2.70;;;15.00;81.40;;;;;;5011612;28;20188;-72
2022/10/26 03:43:02;;;;;;;2.47;2.28;;;14.90;84.10;;;;;;5010954;28;20234;-72
2022/10/26 03:45:27;;;;;;;4.10;2.47;;;14.80;83.00;;;;;;5006261;28;20738;-71
2022/10/26 03:47:53;;;;;;;2.50;2.30;;;14.80;83.80;;;;;;5013251;28;20188;-71
2022/10/26 03:50:20;;;;;;;2.17;1.85;;;14.80;83.50;;;;;;5016140;28;20625;-72
2022/10/26 03:52:47;;;;;;;3.45;2.42;;;14.80;83.80;;;;;;5007834;28;20777;-72
2022/10/26 03:55:13;;;;;;;5.28;2.60;;;14.70;84.50;;;;;;5017368;28;20188;-71
2022/10/26 03:57:40;;;;;;;2.95;2.80;;;14.60;85.10;;;;;;5008207;28;20180;-71
2022/10/26 04:00:07;;;;;;;2.47;2.28;;;14.60;85.30;;;;;;5008337;28;20216;-73
2022/10/26 04:02:32;;;;;;;2.30;2.03;;;14.50;86.00;;;;;;5012337;28;20184;-73
2022/10/26 04:04:58;;;;;;;4.00;2.53;;;14.50;84.60;;;;;;5009626;28;20200;-72
2022/10/26 04:07:23;;;;;;;5.15;2.20;;;14.60;83.70;;;;;;5004175;28;20189;-72
2022/10/26 04:09:49;;;;;;;2.20;2.10;;;14.60;84.90;;;;;;5009084;28;20323;-72
2022/10/26 04:12:15;;;;;;;7.10;2.80;;;14.60;84.90;;;;;;5010658;28;20218;-73
2022/10/26 04:14:40;;;;;;;3.55;2.47;;;14.50;85.00;;;;;;5010464;28;20589;-72
2022/10/26 04:17:06;;;;;;;4.40;2.28;;;14.60;83.80;;;;;;5006911;28;20188;-70
2022/10/26 04:19:32;;;;;;;1.98;1.80;;;14.70;83.50;;;;;;5009946;28;20187;-72
2022/10/26 04:21:57;;;;;;;2.92;2.47;;;14.70;84.00;;;;;;5014854;28;20270;-71
2022/10/26 04:24:23;;;;;;;1.92;1.80;;;14.60;83.40;;;;;;5012188;28;20188;-71
2022/10/26 04:26:48;;;;;;;5.03;1.85;;;14.60;84.20;;;;;;5011445;28;20185;-70
2022/10/26 04:29:14;;;;;;;6.22;2.40;;;14.70;83.50;;;;;;5010660;28;20192;-70
2022/10/26 04:31:41;;;;;;;2.83;2.30;;;14.50;84.60;;;;;;5005207;28;20299;-70
2022/10/26 04:34:06;;;;;;;2.67;2.38;;;14.50;85.00;;;;;;5010390;28;20662;-70
2022/10/26 04:36:33;;;;;;;3.50;2.30;;;14.40;85.70;;;;;;5012606;28;20251;-69
2022/10/26 04:38:59;;;;;;;2.67;2.08;;;14.40;85.20;;;;;;5011793;28;20550;-69
2022/10/26 04:41:24;;;;;;;4.35;2.00;;;14.40;85.30;;;;;;5013496;28;20246;-69
2022/10/26 04:43:50;;;;;;;2.40;2.20;;;14.50;84.00;;;;;;5008993;28;20637;-69
2022/10/26 04:46:15;;;;;;;3.08;1.98;;;14.40;85.10;;;;;;5009292;28;20914;-69
2022/10/26 04:48:41;;;;;;;1.70;1.60;;;14.30;86.00;;;;;;5009922;28;20689;-71
2022/10/26 04:51:07;;;;;;;2.08;1.90;;;14.20;87.20;;;;;;5011159;28;20212;-70
2022/10/26 04:53:33;;;;;;;3.40;2.58;;;14.20;87.60;;;;;;5009600;28;20745;-71
2022/10/26 04:56:00;;;;;;;2.00;1.85;;;14.30;85.60;;;;;;5007787;28;20188;-71
2022/10/26 04:58:26;;;;;;;1.77;1.67;;;14.40;85.80;;;;;;5013497;28;20728;-71
2022/10/26 05:00:52;;;;;;;2.58;2.38;;;14.40;85.80;;;;;;5013960;28;20224;-70
2022/10/26 05:03:18;;;;;;;2.42;2.03;;;14.40;85.60;;;;;;5010396;28;20192;-68
2022/10/26 05:05:46;;;;;;;1.98;1.88;;;14.60;84.40;;;;;;5010240;28;20192;-69
2022/10/26 05:08:13;;;;;;;2.13;2.03;;;14.70;83.80;;;;;;5005260;28;20194;-70
2022/10/26 05:10:39;;;;;;;5.07;3.05;;;14.70;83.80;;;;;;5021377;28;20223;-70
2022/10/26 05:13:05;;;;;;;9.23;2.53;;;14.70;83.90;;;;;;5012696;28;20192;-71
2022/10/26 05:15:31;;;;;;;2.47;2.05;;;14.70;84.20;;;;;;5012142;28;20188;-69
2022/10/26 05:18:01;;;;;;;3.00;2.42;;;14.70;84.40;;;;;;5016055;28;20188;-70
2022/10/26 05:20:30;;;;;;;4.47;2.22;;;14.60;85.00;;;;;;5012703;28;20689;-70
2022/10/26 05:23:01;;;;;;;3.45;2.63;;;14.60;84.60;;;;;;5009162;28;20218;-70
2022/10/26 05:25:29;;;;;;;10.38;2.20;;;14.70;84.70;;;;;;5010053;28;20192;-70
2022/10/26 05:27:59;;;;;;;2.30;2.20;;;14.70;85.20;;;;;;5010086;28;20249;-70
2022/10/26 05:30:26;;;;;;;3.15;1.80;;;14.80;83.50;;;;;;5005418;28;20223;-69
2022/10/26 05:32:55;;;;;;;3.10;1.92;;;14.80;84.00;;;;;;5006256;28;20672;-69
2022/10/26 05:35:22;;;;;;;2.42;2.10;;;14.80;83.30;;;;;;5009282;28;20177;-69
2022/10/26 05:37:47;;;;;;;4.75;2.40;;;14.90;83.50;;;;;;5011704;28;20489;-70
2022/10/26 05:40:14;;;;;;;2.70;2.60;;;14.90;83.50;;;;;;5006091;28;20189;-70
2022/10/26 05:42:40;;;;;;;2.00;1.90;;;14.90;83.70;;;;;;5012204;28;20188;-69
2022/10/26 05:45:06;;;;;;;6.75;2.75;;;15.00;84.20;;;;;;5011961;28;20189;-71
2022/10/26 05:47:31;;;;;;;2.65;2.08;;;15.00;83.30;;;;;;5012740;28;20213;-71
2022/10/26 05:49:57;;;;;;;3.22;2.60;;;15.00;83.10;;;;;;5014388;28;20184;-69
2022/10/26 05:52:23;;;;;;;2.17;2.08;;;15.00;83.30;;;;;;5014884;28;20220;-70
2022/10/26 05:54:49;;;;;;;5.75;2.40;;;15.00;83.30;;;;;;5012994;28;20184;-75
2022/10/26 05:57:15;;;;;;;2.25;2.15;;;15.10;83.50;;;;;;5010428;28;20692;-71
2022/10/26 05:59:41;;;;;;;3.78;2.83;;;15.00;83.60;;;;;;5011641;28;20633;-71
2022/10/26 06:02:22;;;;;;;2.67;2.42;;;15.00;83.60;;;;;;5012008;28;20188;-71
2022/10/26 06:04:49;;;;;;;2.45;2.35;;;15.00;84.30;;;;;;5008909;28;20185;-71
2022/10/26 06:07:19;;;;;;;2.35;2.15;;;15.00;84.80;;;;;;5012700;28;20173;-70
2022/10/26 06:09:46;;;;;;;4.07;2.40;;;15.00;83.90;;;;;;5012855;28;20192;-71
2022/10/26 06:12:13;;;;;;;2.55;2.35;;;15.10;83.50;;;;;;5009886;28;20215;-71
2022/10/26 06:14:39;;;;;;;2.20;2.08;;;15.20;83.30;;;;;;5010997;28;20188;-68
2022/10/26 06:17:31;;;;;;;2.13;1.90;;;15.20;82.70;;;;;;5009380;28;20268;-69
2022/10/26 06:20:20;;;;;;;5.57;2.40;;;15.30;83.20;;;;;;5016773;28;20230;-71
2022/10/26 06:22:48;;;;;;;5.57;2.25;;;15.40;82.10;;;;;;5012417;28;20814;-70
2022/10/26 06:25:38;;;;;;;2.33;2.13;;;15.50;82.80;;;;;;5010926;28;20189;-69
2022/10/26 06:28:19;;;;;;;2.63;2.53;;;15.50;82.30;;;;;;5031911;28;20763;-71
2022/10/26 06:30:45;;;;;;;5.00;2.17;;;15.60;81.70;;;;;;5017842;28;20219;-70
2022/10/26 06:33:12;;;;;;;5.55;2.88;;;15.60;82.60;;;;;;5012449;28;20181;-70
2022/10/26 06:35:40;;;;;;;6.22;2.78;;;15.70;82.20;;;;;;5011827;28;20230;-70
2022/10/26 06:38:34;;;;;;;4.05;2.47;;;15.80;82.20;;;;;;5010522;28;20176;-69
2022/10/26 06:41:00;;;;;;;5.68;2.38;;;15.80;82.10;;;;;;5009408;28;20200;-68
2022/10/26 06:43:29;;;;;;;2.55;2.17;;;15.80;82.30;;;;;;5011609;28;20204;-69
2022/10/26 06:46:28;;;;;;;4.43;2.10;;;15.90;82.40;;;;;;5016349;28;20188;-69
2022/10/26 06:49:16;;;;;;;3.88;2.22;;;16.00;82.00;;;;;;5004434;28;20250;-70
2022/10/26 06:52:15;;;;;;;3.17;2.03;;;16.20;82.40;;;;;;5015376;28;20216;-69
2022/10/26 06:54:54;;;;;;;4.57;2.53;;;16.70;80.80;;;;;;4986768;28;20329;-69
2022/10/26 06:57:22;;;;;;;2.63;2.47;;;17.20;80.20;;;;;;4992240;28;20216;-68
2022/10/26 07:00:04;;;;;;;3.42;2.40;;;17.80;80.10;;;;;;4986209;28;20677;-69
2022/10/26 07:02:29;;;;;;;4.07;2.10;;;18.40;77.50;;;;;;4991882;28;20190;-69
2022/10/26 07:04:55;;;;;;;1.92;1.77;;;18.90;77.40;;;;;;4987000;28;20461;-69
2022/10/26 07:07:29;;;;;;;4.80;2.15;;;19.50;76.40;;;;;;4985814;28;20672;-69
2022/10/26 07:09:55;;;;;;;2.08;1.98;;;20.20;74.90;;;;;;4989497;28;20190;-69
2022/10/26 07:12:20;;;;;;;3.40;2.10;;;20.80;73.30;;;;;;4987427;28;20232;-70
2022/10/26 07:14:46;;;;;;;2.15;2.05;;;21.40;71.80;;;;;;4990801;28;20264;-70
2022/10/26 07:17:12;;;;;;;2.90;2.20;;;22.00;71.30;;;;;;4992915;28;20263;-69
2022/10/26 07:19:39;;;;;;;3.03;2.35;;;22.60;69.70;;;;;;4991423;28;20197;-69
2022/10/26 07:22:05;;;;;;;2.53;2.33;;;23.20;68.20;;;;;;4985172;28;20256;-69
2022/10/26 07:24:31;;;;;;;5.47;1.85;;;23.80;67.80;;;;;;4989103;28;20674;-69
2022/10/26 07:26:57;;;;;;;2.00;1.90;;;24.40;65.60;;;;;;4989593;28;20323;-69
2022/10/26 07:29:25;;;;;;;1.85;1.77;;;24.90;64.50;;;;;;4992183;28;20182;-69
2022/10/26 07:31:51;;;;;;;2.05;1.95;;;25.30;63.10;;;;;;4997384;28;20613;-69
2022/10/26 07:34:17;;;;;;;5.10;2.42;;;25.60;63.40;;;;;;5008153;28;20308;-68
2022/10/26 07:36:43;;;;;;;2.33;2.13;;;26.00;62.80;;;;;;5011359;28;20671;-68
2022/10/26 07:39:09;;;;;;;3.08;2.50;;;26.50;62.70;;;;;;5011941;28;20199;-68
2022/10/26 07:41:34;;;;;;;3.50;2.70;;;27.00;62.20;;;;;;5011465;28;20700;-68
2022/10/26 07:44:00;;;;;;;2.53;2.33;;;27.50;60.90;;;;;;5015070;28;20678;-68
2022/10/26 07:46:26;;;;;;;2.05;2.03;;;27.90;60.30;;;;;;5011891;28;20196;-68
2022/10/26 07:48:52;;;;;;;2.65;2.35;;;28.20;58.90;;;;;;5013381;28;20200;-68
2022/10/26 07:51:19;;;;;;;7.85;1.90;;;28.40;58.80;;;;;;5008974;28;20275;-69
2022/10/26 07:53:45;;;;;;;3.00;1.98;;;28.70;58.30;;;;;;5012120;28;20260;-68
2022/10/26 07:56:11;;;;;;;2.53;2.20;;;28.90;58.20;;;;;;5013672;28;20265;-69
2022/10/26 07:58:37;;;;;;;2.20;2.10;;;29.00;56.50;;;;;;5016273;28;20193;-69
2022/10/26 08:01:08;;;;;;;2.47;2.22;;;29.10;56.70;;;;;;5009242;28;20189;-69
2022/10/26 08:03:34;;;;;;;2.30;2.10;;;29.10;56.30;;;;;;5019152;28;20192;-69
2022/10/26 08:06:00;;;;;;;2.05;1.95;;;29.00;56.30;;;;;;5006097;28;20177;-70
2022/10/26 08:08:26;;;;;;;3.10;2.53;;;29.10;57.00;;;;;;5013699;28;20482;-70
2022/10/26 08:10:51;;;;;;;2.40;2.22;;;29.20;55.70;;;;;;5012207;28;20616;-69
2022/10/26 08:13:17;;;;;;;2.38;2.28;;;29.30;56.50;;;;;;5008782;28;20473;-70
2022/10/26 08:15:43;;;;;;;4.38;1.98;;;29.30;56.10;;;;;;5007228;28;20180;-69
2022/10/26 08:18:09;;;;;;;2.65;2.33;;;29.50;54.50;;;;;;5006847;28;20193;-69
2022/10/26 08:20:35;;;;;;;2.17;2.08;;;29.70;54.40;;;;;;5005381;28;20192;-68
2022/10/26 08:23:02;;;;;;;2.15;2.05;;;29.80;54.90;;;;;;5013183;28;20654;-69
2022/10/26 08:25:28;;;;;;;3.25;1.98;;;29.90;54.40;;;;;;5011226;28;20192;-69
2022/10/26 08:27:54;;;;;;;1.90;1.83;;;30.20;54.20;;;;;;5009991;28;20184;-69
2022/10/26 08:30:20;;;;;;;4.88;2.30;;;30.60;53.80;;;;;;5005862;28;20208;-69
2022/10/26 08:32:45;;;;;;;2.45;2.22;;;30.80;51.90;;;;;;5013003;28;20297;-69
2022/10/26 08:35:11;;;;;;;2.45;1.92;;;30.80;53.40;;;;;;5012769;28;20208;-69
2022/10/26 08:37:37;;;;;;;2.20;2.05;;;31.00;53.90;;;;;;5013090;28;20588;-69
2022/10/26 08:40:03;;;;;;;2.72;2.58;;;31.40;53.20;;;;;;5012077;28;20238;-69
2022/10/26 08:42:39;;;;;;;2.50;2.30;;;31.80;52.70;;;;;;5007824;28;20203;-69
2022/10/26 08:45:33;;;;;;;1.58;1.58;;;32.30;51.80;;;;;;5006619;28;20192;-69
2022/10/26 08:48:04;;;;;;;1.42;1.35;;;32.90;51.30;;;;;;4969080;28;20201;-69
2022/10/26 08:50:38;;;;;;;1.83;1.50;;;33.50;50.10;;;;;;4954982;28;20205;-69
2022/10/26 08:53:31;;;;;;;2.03;1.63;;;34.00;49.10;;;;;;4969354;28;20294;-70
2022/10/26 08:56:17;;;;;;;1.98;1.73;;;34.20;48.20;;;;;;4913225;29;20690;-69
2022/10/26 08:58:51;;;;;;;2.17;1.85;;;34.20;47.40;;;;;;4913594;29;20192;-69
2022/10/26 09:01:18;;;;;;;3.90;1.38;;;34.30;50.00;;;;;;4918119;29;20199;-69
2022/10/26 09:03:43;;;;;;;1.58;1.58;;;34.50;50.10;;;;;;4915882;29;20183;-69
2022/10/26 09:06:25;;;;;;;1.70;1.60;;;34.90;48.50;;;;;;4916941;29;20609;-69
2022/10/26 09:09:01;;;;;;;4.63;1.58;;;35.10;46.80;;;;;;4915922;29;20228;-69
2022/10/26 09:11:45;;;;;;;1.90;1.80;;;35.30;49.40;;;;;;4915675;29;20231;-70
2022/10/26 09:14:32;;;;;;;1.52;1.50;;;35.60;48.00;;;;;;4917179;29;20211;-68
2022/10/26 09:17:22;;;;;;;0.98;0.98;;;35.90;47.10;;;;;;4918163;29;20739;-69
2022/10/26 09:19:50;;;;;;;1.42;1.25;;;36.30;45.80;;;;;;4918241;29;20694;-73
2022/10/26 09:22:51;;;;;;;1.80;1.42;;;36.50;44.80;;;;;;4916133;29;20598;-70
2022/10/26 09:25:22;;;;;;;1.10;1.02;;;36.70;47.70;;;;;;4912774;29;20326;-69
2022/10/26 09:27:54;;;;;;;1.40;1.40;;;37.00;47.10;;;;;;4924993;29;21181;-70
2022/10/26 09:30:21;;;;;;;1.30;0.90;;;37.20;47.30;;;;;;4924535;29;20298;-70
2022/10/26 09:33:02;;;;;;;1.10;1.10;;;37.40;47.40;;;;;;4935588;28;20256;-70
2022/10/26 09:35:40;;;;;;;0.80;0.80;;;37.70;47.10;;;;;;4946624;28;20194;-70
2022/10/26 09:38:14;;;;;;;2.38;1.02;;;37.80;42.60;;;;;;4947506;28;20198;-70
2022/10/26 09:40:45;;;;;;;1.95;0.85;;;37.70;43.70;;;;;;4928616;28;20190;-70
2022/10/26 09:43:19;;;;;;;0.80;0.80;;;37.50;46.50;;;;;;4948102;28;20198;-70
2022/10/26 09:45:49;;;;;;;0.75;0.75;;;37.60;45.90;;;;;;4949567;28;20210;-70
2022/10/26 09:48:35;;;;;;;0.70;0.65;;;37.60;45.10;;;;;;4938979;28;20202;-70
2022/10/26 09:51:01;;;;;;;0.82;0.82;;;37.50;44.60;;;;;;4952953;28;20232;-70
2022/10/26 09:53:27;;;;;;;0.85;0.60;;;37.60;46.00;;;;;;4948662;28;20186;-70
2022/10/26 09:56:09;;;;;;;1.42;0.80;;;37.80;45.40;;;;;;4948145;28;20186;-70
2022/10/26 09:58:47;;;;;;;1.40;0.77;;;37.90;44.90;;;;;;4953628;28;20197;-70
2022/10/26 10:01:41;;;;;;;1.35;0.60;;;38.00;43.40;;;;;;4968949;28;21021;-70
2022/10/26 10:04:13;;;;;;;4.40;1.00;;;37.70;41.00;;;;;;5015852;28;20203;-70
2022/10/26 10:06:39;;;;;;;6.80;0.80;;;37.30;44.90;;;;;;5013147;28;20631;-70
2022/10/26 10:09:09;;;;;;;0.70;0.70;;;37.10;43.50;;;;;;5010920;28;20274;-70
2022/10/26 10:11:55;;;;;;;0.85;0.77;;;36.80;44.90;;;;;;5010182;28;20665;-70
2022/10/26 10:14:32;;;;;;;1.23;0.85;;;36.50;43.20;;;;;;5019591;28;20187;-70
2022/10/26 10:17:01;;;;;;;0.60;0.60;;;36.50;45.90;;;;;;5012662;28;20233;-70
2022/10/26 10:19:35;;;;;;;1.25;0.75;;;36.70;42.00;;;;;;5013031;28;20578;-70
2022/10/26 10:22:10;;;;;;;0.82;0.70;;;36.80;45.10;;;;;;5011843;28;20204;-70
2022/10/26 10:24:39;;;;;;;1.20;0.70;;;37.00;45.20;;;;;;5014582;28;20409;-70
2022/10/26 10:27:16;;;;;;;2.70;0.68;;;37.30;44.70;;;;;;5011806;28;20258;-70
2022/10/26 10:29:48;;;;;;;2.10;0.65;;;37.60;44.50;;;;;;5014249;28;20188;-70
2022/10/26 10:32:26;;;;;;;2.47;1.08;;;38.10;43.90;;;;;;5010282;28;20591;-70
2022/10/26 10:34:56;;;;;;;0.85;0.80;;;38.30;44.40;;;;;;5008823;28;20183;-71
2022/10/26 10:37:31;;;;;;;0.73;0.73;;;38.60;42.50;;;;;;5012318;28;20184;-70
2022/10/26 10:40:20;;;;;;;1.45;0.60;;;38.70;43.80;;;;;;5013699;28;20285;-71
2022/10/26 10:42:47;;;;;;;2.20;0.80;;;38.90;41.30;;;;;;5010870;28;20177;-70
2022/10/26 10:45:18;;;;;;;1.25;0.70;;;39.10;42.20;;;;;;5007493;28;20326;-70
2022/10/26 10:47:59;;;;;;;1.35;0.77;;;39.20;43.40;;;;;;5012282;28;20184;-70
2022/10/26 10:50:25;;;;;;;0.65;0.65;;;39.40;41.60;;;;;;5008701;28;20817;-70
2022/10/26 10:52:51;;;;;;;1.70;0.80;;;39.50;43.30;;;;;;5011035;28;20281;-70
2022/10/26 10:55:21;;;;;;;0.93;0.90;;;39.30;41.30;;;;;;5006944;28;20243;-71
2022/10/26 10:58:45;;;;;;;2.25;0.98;;;38.80;41.70;;;;;;5013587;28;20263;-71
2022/10/26 11:01:15;;;;;;;0.90;0.70;;;38.10;40.70;;;;;;4970783;28;20224;-70
2022/10/26 11:04:24;;;;;;;1.90;0.70;;;37.70;42.60;;;;;;4971456;28;20205;-71
2022/10/26 11:06:53;;;;;;;0.90;0.90;;;37.50;42.50;;;;;;4954045;28;20276;-70
2022/10/26 11:09:24;;;;;;;2.42;0.80;;;37.10;43.20;;;;;;4970155;28;20185;-70
2022/10/26 11:11:56;;;;;;;0.57;0.57;;;37.10;42.60;;;;;;4969683;28;20299;-71
2022/10/26 11:14:33;;;;;;;0.50;0.50;;;37.00;44.30;;;;;;4972340;28;21126;-70
2022/10/26 11:17:17;;;;;;;1.27;1.17;;;37.20;43.30;;;;;;4971173;28;20209;-70
2022/10/26 11:19:52;;;;;;;0.60;0.60;;;37.40;42.90;;;;;;4967048;28;20612;-70
2022/10/26 11:22:25;;;;;;;1.05;0.68;;;37.60;43.50;;;;;;4970032;28;20181;-71
2022/10/26 11:25:21;;;;;;;1.65;0.60;;;37.90;43.70;;;;;;4965827;28;20229;-71
2022/10/26 11:27:54;;;;;;;0.63;0.63;;;38.20;41.00;;;;;;4970069;28;20221;-70
2022/10/26 11:30:24;;;;;;;1.65;0.60;;;38.50;41.50;;;;;;4970038;28;20197;-70
2022/10/26 11:32:58;;;;;;;0.60;0.60;;;38.70;42.70;;;;;;4970112;28;20243;-70
2022/10/26 11:35:41;;;;;;;0.45;0.45;;;38.90;41.70;;;;;;4975959;28;20188;-70
2022/10/26 11:38:29;;;;;;;1.00;0.60;;;39.00;42.20;;;;;;5010862;28;20949;-70
2022/10/26 11:41:14;;;;;;;0.32;0.32;;;39.10;40.90;;;;;;5010957;28;20195;-71
2022/10/26 11:43:45;;;;;;;1.08;0.63;;;39.30;39.00;;;;;;5007580;28;20207;-71
2022/10/26 11:46:32;;;;;;;1.08;0.65;;;39.10;41.00;;;;;;5008997;28;20204;-70
2022/10/26 11:49:24;;;;;;;0.68;0.68;;;38.80;39.20;;;;;;5010664;28;20207;-70
2022/10/26 11:52:05;;;;;;;2.30;0.40;;;38.80;41.00;;;;;;5010935;28;20226;-70
2022/10/26 11:54:44;;;;;;;0.98;0.40;;;38.70;39.50;;;;;;5011806;28;20188;-70
2022/10/26 11:57:11;;;;;;;0.40;0.40;;;38.60;38.90;;;;;;5011023;28;20186;-70
2022/10/26 11:59:43;;;;;;;0.30;0.30;;;38.40;41.10;;;;;;5007990;28;20354;-71
2022/10/26 12:02:14;;;;;;;2.30;0.35;;;38.40;40.20;;;;;;5013098;28;20187;-70
2022/10/26 12:04:42;;;;;;;0.30;0.30;;;38.40;40.70;;;;;;5010492;28;20200;-70
2022/10/26 12:07:20;;;;;;;0.52;0.40;;;38.40;38.90;;;;;;5012441;28;20271;-71
2022/10/26 12:09:46;;;;;;;0.50;0.40;;;38.50;38.80;;;;;;5010087;28;20283;-71
2022/10/26 12:12:20;;;;;;;0.30;0.30;;;38.50;39.10;;;;;;5008407;28;20701;-70
2022/10/26 12:15:13;;;;;;;0.40;0.40;;;38.60;38.70;;;;;;5007367;28;20184;-70
2022/10/26 12:17:55;;;;;;;0.20;0.20;;;38.70;38.90;;;;;;5007844;28;20255;-70
2022/10/26 12:20:54;;;;;;;0.30;0.30;;;38.50;40.90;;;;;;5009567;28;20665;-70
2022/10/26 12:23:22;;;;;;;0.57;0.30;;;38.10;38.20;;;;;;5007249;28;20755;-72
2022/10/26 12:25:47;;;;;;;2.40;0.40;;;37.60;39.00;;;;;;5012113;28;20322;-70
2022/10/26 12:28:39;;;;;;;1.15;0.30;;;37.00;39.20;;;;;;5012150;28;20275;-70
2022/10/26 12:31:44;;;;;;;0.30;0.30;;;36.30;39.30;;;;;;5007732;28;20215;-70
2022/10/26 12:34:29;;;;;;;0.32;0.32;;;36.20;39.30;;;;;;5013013;28;20192;-70
2022/10/26 12:36:55;;;;;;;0.40;0.40;;;36.10;40.10;;;;;;5011947;28;20277;-71
2022/10/26 12:39:40;;;;;;;0.20;0.20;;;36.10;41.20;;;;;;5009108;28;20249;-71
2022/10/26 12:42:09;;;;;;;0.30;0.30;;;35.70;39.50;;;;;;5012890;28;20195;-71
2022/10/26 12:44:35;;;;;;;0.73;0.40;;;35.40;41.00;;;;;;5013632;28;20250;-71
2022/10/26 12:47:01;;;;;;;0.20;0.20;;;35.20;40.90;;;;;;5007923;28;20226;-70
2022/10/26 12:49:58;;;;;;;0.73;0.20;;;35.10;42.10;;;;;;5006930;28;20673;-70
2022/10/26 12:52:38;;;;;;;0.25;0.25;;;35.20;40.30;;;;;;5015038;28;20582;-70
2022/10/26 12:55:06;;;;;;;0.28;0.28;;;35.00;40.70;;;;;;5010403;28;20184;-70
2022/10/26 12:57:50;;;;;;;0.20;0.15;;;34.80;40.90;;;;;;5014452;28;20189;-70
2022/10/26 13:00:22;;;;;;;0.30;0.30;;;34.70;40.10;;;;;;5011331;28;20176;-70
2022/10/26 13:03:19;;;;;;;0.30;0.30;;;34.60;40.90;;;;;;5012707;28;20627;-70
2022/10/26 13:06:00;;;;;;;0.45;0.45;;;34.10;39.50;;;;;;5003277;28;20196;-71
2022/10/26 13:08:27;;;;;;;0.43;0.43;;;33.80;40.10;;;;;;5004818;28;20184;-70
2022/10/26 13:11:11;;;;;;;1.67;0.30;;;33.50;40.70;;;;;;5004977;28;20702;-70